Time;durP1;ratioP1;P1;durP2;ratioP2;P2;SDS_P1;SDS_P2;PMS_P1;PMS_P2;Temp;Humidity;BMP_temperature;BMP_pressure;BME280_temperature;BME280_humidity;BME280_pressure;Samples;Min_cycle;Max_cycle;Signal;HPM_P1;HPM_P2
2024/03/25 00:02:13;;;;;;;4.47;2.30;;;;;;;2.81;100.00;96101.09;4994965;28;20042;-68
2024/03/25 00:04:38;;;;;;;7.22;2.55;;;;;;;2.79;100.00;96108.75;5000100;28;20053;-69
2024/03/25 00:07:04;;;;;;;5.63;2.50;;;;;;;2.98;100.00;96113.66;4994534;28;20729;-67
2024/03/25 00:09:29;;;;;;;4.43;2.22;;;;;;;3.11;100.00;96111.00;5010754;28;20049;-68
2024/03/25 00:11:55;;;;;;;7.97;2.33;;;;;;;3.13;100.00;96111.47;5019749;28;20049;-68
2024/03/25 00:14:21;;;;;;;7.78;2.75;;;;;;;3.18;100.00;96106.63;4995963;28;20750;-68
2024/03/25 00:16:47;;;;;;;5.70;2.20;;;;;;;3.16;100.00;96108.09;5000313;28;20412;-69
2024/03/25 00:19:12;;;;;;;6.43;2.22;;;;;;;3.12;100.00;96110.69;4995744;28;20052;-68
2024/03/25 00:21:38;;;;;;;3.97;2.22;;;;;;;3.06;100.00;96109.28;5000944;28;20096;-70
2024/03/25 00:24:03;;;;;;;8.02;2.60;;;;;;;3.08;100.00;96103.53;4996056;28;20046;-70
2024/03/25 00:26:29;;;;;;;6.55;2.47;;;;;;;3.18;100.00;96103.13;5000771;28;20049;-70
2024/03/25 00:28:54;;;;;;;6.47;2.60;;;;;;;3.32;100.00;96106.34;5000586;28;20045;-69
2024/03/25 00:31:19;;;;;;;6.25;2.20;;;;;;;3.39;100.00;96103.88;4994775;28;20151;-67
2024/03/25 00:33:45;;;;;;;5.05;2.10;;;;;;;3.55;100.00;96098.63;4999536;28;20053;-69
2024/03/25 00:36:10;;;;;;;4.43;2.30;;;;;;;3.53;100.00;96100.06;4994438;28;20045;-70
2024/03/25 00:38:36;;;;;;;7.47;1.88;;;;;;;3.54;100.00;96088.91;5000579;28;20050;-70
2024/03/25 00:41:01;;;;;;;7.65;1.92;;;;;;;3.57;100.00;96099.06;4998820;28;20046;-72
2024/03/25 00:43:26;;;;;;;7.63;2.03;;;;;;;3.51;100.00;96091.50;4997951;28;20045;-69
2024/03/25 00:45:52;;;;;;;3.45;2.28;;;;;;;3.51;100.00;96089.59;4999978;28;20045;-69
2024/03/25 00:48:17;;;;;;;6.15;2.17;;;;;;;3.40;100.00;96091.94;4995281;28;20038;-68
2024/03/25 00:50:43;;;;;;;4.57;2.10;;;;;;;3.36;100.00;96088.31;4982925;28;20632;-69
2024/03/25 00:53:08;;;;;;;7.28;2.20;;;;;;;3.25;100.00;96079.81;4996229;28;20129;-68
2024/03/25 00:55:35;;;;;;;5.30;2.38;;;;;;;3.01;100.00;96082.47;4999273;28;20053;-67
2024/03/25 00:58:02;;;;;;;3.97;2.22;;;;;;;3.15;100.00;96080.25;5000449;28;20455;-67
2024/03/25 01:00:27;;;;;;;4.05;2.47;;;;;;;3.06;100.00;96077.63;4971585;28;20045;-68
2024/03/25 01:02:53;;;;;;;5.53;2.63;;;;;;;3.08;100.00;96079.19;4999346;28;20488;-71
2024/03/25 01:05:18;;;;;;;3.53;2.30;;;;;;;3.03;100.00;96078.28;4977012;28;20046;-71
2024/03/25 01:07:43;;;;;;;5.85;2.40;;;;;;;3.09;100.00;96064.56;5000508;28;20045;-71
2024/03/25 01:10:09;;;;;;;5.25;2.60;;;;;;;2.90;100.00;96073.16;4978430;28;20045;-71
2024/03/25 01:12:34;;;;;;;5.07;2.63;;;;;;;2.86;100.00;96073.84;4999776;28;20057;-70
2024/03/25 01:15:00;;;;;;;8.07;2.85;;;;;;;2.86;100.00;96070.31;4999959;28;20041;-69
2024/03/25 01:17:25;;;;;;;7.63;2.47;;;;;;;2.91;100.00;96062.00;5002604;28;20296;-72
2024/03/25 01:19:51;;;;;;;6.50;2.40;;;;;;;2.92;100.00;96058.19;4993886;28;20065;-72
2024/03/25 01:22:16;;;;;;;5.97;2.78;;;;;;;2.74;100.00;96062.97;5001559;28;20054;-70
2024/03/25 01:24:41;;;;;;;6.43;2.60;;;;;;;2.67;100.00;96060.78;4999239;28;20037;-69
2024/03/25 01:27:07;;;;;;;7.15;2.78;;;;;;;2.79;100.00;96060.06;4996038;28;20152;-70
2024/03/25 01:29:32;;;;;;;6.30;2.20;;;;;;;2.87;100.00;96051.06;4999861;28;20133;-70
2024/03/25 01:31:59;;;;;;;4.00;2.35;;;;;;;2.77;100.00;96058.78;4999925;28;20798;-73
2024/03/25 01:34:25;;;;;;;6.53;2.63;;;;;;;2.76;100.00;96047.19;4976898;28;20103;-70
2024/03/25 01:36:51;;;;;;;5.20;2.50;;;;;;;2.65;100.00;96048.72;4999139;28;20038;-69
2024/03/25 01:39:16;;;;;;;5.28;2.67;;;;;;;2.64;100.00;96047.13;4994136;28;20049;-73
2024/03/25 01:41:41;;;;;;;5.97;3.38;;;;;;;2.66;100.00;96048.38;5000304;28;20042;-71
2024/03/25 01:44:07;;;;;;;4.13;2.38;;;;;;;2.60;100.00;96047.00;4977520;28;20049;-72
2024/03/25 01:46:32;;;;;;;5.47;2.80;;;;;;;2.65;100.00;96049.50;5000409;28;20100;-70
2024/03/25 01:48:58;;;;;;;8.98;3.15;;;;;;;2.84;100.00;96045.53;4999390;28;20078;-71
2024/03/25 01:51:24;;;;;;;5.68;2.25;;;;;;;2.59;100.00;96036.50;4994389;28;20068;-71
2024/03/25 01:53:53;;;;;;;5.20;2.13;;;;;;;2.70;100.00;96045.00;5001483;28;20483;-73
2024/03/25 01:56:19;;;;;;;10.18;3.33;;;;;;;2.69;100.00;96041.53;4995461;28;20050;-69
2024/03/25 01:58:45;;;;;;;3.58;2.28;;;;;;;2.59;100.00;96034.63;5000520;28;20052;-72
2024/03/25 02:01:13;;;;;;;7.32;2.47;;;;;;;2.50;100.00;96036.59;4997793;28;20491;-72
2024/03/25 02:03:39;;;;;;;4.50;2.20;;;;;;;2.43;100.00;96033.63;5011490;28;20099;-72
2024/03/25 02:06:09;;;;;;;5.40;2.63;;;;;;;2.34;100.00;96030.19;4991197;28;20054;-70
2024/03/25 02:08:35;;;;;;;10.13;2.88;;;;;;;2.23;100.00;96027.09;5004731;28;20056;-72
2024/03/25 02:11:01;;;;;;;6.03;3.28;;;;;;;2.33;100.00;96032.09;5002524;28;20092;-71
2024/03/25 02:13:27;;;;;;;8.30;3.83;;;;;;;2.26;100.00;96029.16;5008091;28;20732;-70
2024/03/25 02:15:54;;;;;;;10.02;3.22;;;;;;;2.17;100.00;96031.13;5017553;28;20042;-71
2024/03/25 02:18:20;;;;;;;6.03;3.10;;;;;;;2.04;100.00;96035.66;5020756;28;20065;-71
2024/03/25 02:20:46;;;;;;;8.70;2.67;;;;;;;2.16;100.00;96035.75;5017727;28;20042;-71
2024/03/25 02:23:12;;;;;;;5.50;2.65;;;;;;;2.07;100.00;96030.38;5000672;28;20049;-71
2024/03/25 02:25:39;;;;;;;5.90;3.40;;;;;;;1.92;100.00;96030.94;5003923;28;20104;-70
2024/03/25 02:28:04;;;;;;;6.53;2.80;;;;;;;1.81;100.00;96035.16;4998752;28;20129;-70
2024/03/25 02:30:30;;;;;;;4.43;2.63;;;;;;;1.75;100.00;96033.72;4985908;28;20125;-70
2024/03/25 02:32:55;;;;;;;5.47;2.95;;;;;;;1.70;100.00;96027.41;4985554;28;20673;-71
2024/03/25 02:35:22;;;;;;;5.55;3.25;;;;;;;1.72;100.00;96035.19;4998536;28;20049;-71
2024/03/25 02:37:51;;;;;;;5.88;3.20;;;;;;;1.72;100.00;96025.16;5005322;28;20543;-71
2024/03/25 02:40:17;;;;;;;5.55;2.88;;;;;;;1.85;100.00;96026.06;4997366;28;20105;-71
2024/03/25 02:42:42;;;;;;;10.02;2.90;;;;;;;2.04;100.00;96020.22;4985633;28;20129;-69
2024/03/25 02:45:08;;;;;;;7.50;3.35;;;;;;;2.28;100.00;96022.28;4996774;28;20045;-70
2024/03/25 02:47:33;;;;;;;9.70;4.00;;;;;;;2.32;100.00;96021.63;5002524;28;20073;-70
2024/03/25 02:49:59;;;;;;;5.88;3.28;;;;;;;2.11;100.00;96017.00;5002358;28;20061;-71
2024/03/25 02:52:24;;;;;;;8.82;3.38;;;;;;;2.18;100.00;96019.19;4980215;28;20046;-72
2024/03/25 02:54:50;;;;;;;7.22;2.60;;;;;;;1.91;100.00;96018.56;5002949;28;20041;-71
2024/03/25 02:57:15;;;;;;;6.82;3.08;;;;;;;1.74;100.00;96021.38;4998086;28;20054;-70
2024/03/25 02:59:40;;;;;;;9.73;2.85;;;;;;;1.47;100.00;96023.41;5001496;28;20050;-70
2024/03/25 03:02:06;;;;;;;6.22;2.92;;;;;;;1.39;100.00;96019.63;4998058;28;20568;-70
2024/03/25 03:04:31;;;;;;;11.10;3.72;;;;;;;1.37;100.00;96021.03;4998605;28;20067;-71
2024/03/25 03:06:57;;;;;;;8.00;3.13;;;;;;;1.36;100.00;96016.78;5002139;28;20038;-70
2024/03/25 03:09:22;;;;;;;8.80;3.60;;;;;;;1.31;100.00;96017.75;4998313;28;20929;-70
2024/03/25 03:11:48;;;;;;;6.32;3.15;;;;;;;1.31;100.00;96023.94;4983502;28;20038;-72
2024/03/25 03:14:13;;;;;;;8.52;3.22;;;;;;;1.30;100.00;96022.34;4997865;28;20056;-71
2024/03/25 03:16:38;;;;;;;9.85;3.90;;;;;;;1.40;100.00;96023.88;5001868;28;20065;-71
2024/03/25 03:19:04;;;;;;;10.50;4.07;;;;;;;1.54;100.00;96023.69;4997962;28;20054;-72
2024/03/25 03:21:30;;;;;;;20.17;5.63;;;;;;;1.63;100.00;96019.03;5003302;28;20404;-70
2024/03/25 03:23:56;;;;;;;11.45;4.53;;;;;;;1.65;100.00;96026.81;5003023;28;20133;-70
2024/03/25 03:26:21;;;;;;;16.05;5.18;;;;;;;1.59;100.00;96020.03;4997396;28;20062;-71
2024/03/25 03:28:46;;;;;;;16.00;5.32;;;;;;;1.57;100.00;96028.44;5002613;28;20068;-71
2024/03/25 03:31:12;;;;;;;8.52;4.22;;;;;;;1.64;100.00;96023.31;4998308;28;20142;-71
2024/03/25 03:33:37;;;;;;;9.98;4.32;;;;;;;1.72;100.00;96016.28;5002497;28;20455;-70
2024/03/25 03:36:03;;;;;;;11.68;4.53;;;;;;;1.70;100.00;96018.53;5000793;28;20046;-70
2024/03/25 03:38:28;;;;;;;11.43;4.68;;;;;;;1.63;100.00;96016.31;5005271;28;20042;-70
2024/03/25 03:40:58;;;;;;;13.43;4.90;;;;;;;1.62;100.00;96016.66;5006642;28;20512;-69
2024/03/25 03:43:23;;;;;;;14.02;5.63;;;;;;;1.59;100.00;96010.00;4999455;28;20562;-68
2024/03/25 03:45:49;;;;;;;17.83;6.32;;;;;;;1.52;100.00;96013.22;5008059;28;20050;-69
2024/03/25 03:48:14;;;;;;;22.63;7.15;;;;;;;1.58;100.00;96015.72;5002597;28;20053;-70
2024/03/25 03:50:40;;;;;;;21.30;7.85;;;;;;;1.48;100.00;96006.09;5002610;28;20515;-71
2024/03/25 03:53:05;;;;;;;16.45;5.95;;;;;;;1.43;100.00;96008.97;4998079;28;20056;-69
2024/03/25 03:55:30;;;;;;;13.95;4.97;;;;;;;1.42;100.00;96007.38;4984898;28;20049;-70
2024/03/25 03:57:56;;;;;;;16.27;5.30;;;;;;;1.36;100.00;96006.00;5002158;28;20081;-69
2024/03/25 04:00:21;;;;;;;16.20;4.78;;;;;;;1.55;100.00;96011.78;4996072;28;20691;-69
2024/03/25 04:02:46;;;;;;;10.48;4.13;;;;;;;1.63;100.00;96015.53;4985811;28;20046;-70
2024/03/25 04:05:12;;;;;;;12.02;4.43;;;;;;;1.62;100.00;96009.38;5007793;28;20139;-69
2024/03/25 04:07:38;;;;;;;11.85;4.85;;;;;;;1.65;100.00;96005.22;5022593;28;20054;-69
2024/03/25 04:10:04;;;;;;;9.38;4.20;;;;;;;1.66;100.00;95998.72;5013242;28;20041;-72
2024/03/25 04:12:31;;;;;;;8.73;3.75;;;;;;;1.65;100.00;96006.00;5001497;28;20123;-71
2024/03/25 04:14:56;;;;;;;8.77;3.83;;;;;;;1.78;100.00;95998.00;5001102;28;20110;-73
2024/03/25 04:17:22;;;;;;;9.40;3.40;;;;;;;1.64;100.00;96006.31;4998621;28;20639;-71
2024/03/25 04:19:48;;;;;;;12.10;5.10;;;;;;;1.58;100.00;96005.72;5011467;28;20054;-72
2024/03/25 04:22:14;;;;;;;8.52;3.67;;;;;;;1.41;100.00;96014.69;4995882;28;20046;-71
2024/03/25 04:24:39;;;;;;;7.95;3.90;;;;;;;1.24;100.00;96010.16;5015345;28;20119;-72
2024/03/25 04:27:05;;;;;;;7.20;3.25;;;;;;;1.29;100.00;96003.78;4998035;28;20048;-70
2024/03/25 04:29:30;;;;;;;7.43;3.80;;;;;;;1.15;100.00;96009.38;5000123;28;20096;-71
2024/03/25 04:31:56;;;;;;;5.78;3.42;;;;;;;0.78;100.00;96002.84;5000395;28;20049;-71
2024/03/25 04:34:23;;;;;;;9.98;4.15;;;;;;;0.56;100.00;95994.63;4995637;28;20067;-71
2024/03/25 04:36:48;;;;;;;10.27;4.25;;;;;;;0.49;100.00;96004.31;4999661;28;20092;-70
2024/03/25 04:39:14;;;;;;;10.27;4.32;;;;;;;0.42;100.00;96007.47;4995267;28;20050;-71
2024/03/25 04:41:40;;;;;;;8.18;4.53;;;;;;;0.47;100.00;96003.81;5000964;28;20120;-72
2024/03/25 04:44:06;;;;;;;10.38;4.40;;;;;;;0.52;100.00;96009.03;4996801;28;20068;-70
2024/03/25 04:46:32;;;;;;;7.85;4.28;;;;;;;0.55;100.00;96009.19;5000221;28;20046;-70
2024/03/25 04:48:57;;;;;;;14.07;5.88;;;;;;;0.61;100.00;96001.72;4999933;28;20603;-70
2024/03/25 04:51:23;;;;;;;12.77;5.13;;;;;;;0.65;100.00;96007.28;4996300;28;20136;-69
2024/03/25 04:53:48;;;;;;;10.25;5.53;;;;;;;0.67;100.00;96010.47;5001300;28;20041;-70
2024/03/25 04:56:13;;;;;;;7.85;4.57;;;;;;;0.72;100.00;96011.09;4993897;28;20137;-71
2024/03/25 04:58:39;;;;;;;12.90;5.40;;;;;;;0.76;100.00;96003.94;5000528;28;20053;-69
2024/03/25 05:01:04;;;;;;;15.07;5.97;;;;;;;0.78;100.00;96006.31;4994250;28;20145;-70
2024/03/25 05:03:30;;;;;;;8.57;4.53;;;;;;;0.84;100.00;96010.41;5000274;28;20072;-69
2024/03/25 05:05:56;;;;;;;10.10;4.85;;;;;;;0.87;100.00;95998.22;5000246;28;20061;-69
2024/03/25 05:08:22;;;;;;;9.07;5.35;;;;;;;0.86;100.00;95996.63;4996017;28;20520;-69
2024/03/25 05:10:47;;;;;;;11.13;4.63;;;;;;;0.89;100.00;95995.97;5001128;28;20397;-69
2024/03/25 05:13:12;;;;;;;10.63;4.68;;;;;;;0.93;100.00;96002.31;4995166;28;20609;-70
2024/03/25 05:15:38;;;;;;;11.55;6.03;;;;;;;0.98;100.00;95996.75;4999363;28;20081;-71
2024/03/25 05:18:04;;;;;;;10.52;5.88;;;;;;;1.01;100.00;95998.00;4995493;28;20108;-69
2024/03/25 05:20:29;;;;;;;13.93;5.20;;;;;;;1.03;100.00;96004.66;5000515;28;20050;-69
2024/03/25 05:22:54;;;;;;;13.18;4.72;;;;;;;1.06;100.00;95998.63;4999976;28;20046;-69
2024/03/25 05:25:24;;;;;;;12.35;4.55;;;;;;;0.93;100.00;95989.59;4995143;28;20058;-71
2024/03/25 05:27:49;;;;;;;;;;;;;;;0.87;100.00;95993.59;5001311;28;20556;-70
2024/03/25 05:30:15;;;;;;;10.43;4.65;;;;;;;0.78;100.00;95990.13;5000692;28;19952;-72
2024/03/25 05:32:40;;;;;;;10.52;5.20;;;;;;;0.91;100.00;95997.22;5015754;28;20050;-70
2024/03/25 05:35:06;;;;;;;8.45;4.35;;;;;;;1.46;100.00;95995.63;4981732;28;20072;-71
2024/03/25 05:37:33;;;;;;;8.88;4.43;;;;;;;1.85;100.00;95990.16;5004595;28;20045;-71
2024/03/25 05:39:59;;;;;;;6.57;3.80;;;;;;;1.69;100.00;96003.44;5011140;28;20045;-71
2024/03/25 05:42:24;;;;;;;13.55;4.15;;;;;;;1.54;100.00;95999.38;5007081;28;20046;-70
2024/03/25 05:44:50;;;;;;;12.15;4.13;;;;;;;1.68;100.00;95999.94;5006237;28;20046;-70
2024/03/25 05:47:15;;;;;;;6.47;3.67;;;;;;;1.68;100.00;96008.06;4981949;28;20069;-69
2024/03/25 05:49:41;;;;;;;7.32;3.58;;;;;;;1.85;100.00;96000.97;5004329;28;20049;-71
2024/03/25 05:52:07;;;;;;;10.13;4.07;;;;;;;1.90;100.00;96001.56;4985028;28;20519;-71
2024/03/25 05:54:32;;;;;;;9.77;4.07;;;;;;;1.86;100.00;95992.53;5010246;28;20508;-71
2024/03/25 05:56:57;;;;;;;8.77;3.83;;;;;;;1.74;100.00;95991.66;5007099;28;20049;-71
2024/03/25 05:59:23;;;;;;;7.68;3.60;;;;;;;1.57;100.00;96000.63;4998993;28;20054;-70
2024/03/25 06:01:48;;;;;;;26.17;15.63;;;;;;;1.47;100.00;95999.09;5004298;28;20488;-70
2024/03/25 06:04:14;;;;;;;15.13;7.97;;;;;;;1.30;100.00;95991.88;5000501;28;20065;-70
2024/03/25 06:06:39;;;;;;;7.78;4.05;;;;;;;1.39;100.00;96000.72;4987999;28;20111;-70
2024/03/25 06:09:05;;;;;;;9.32;4.28;;;;;;;1.75;100.00;95994.03;4999086;28;20041;-71
2024/03/25 06:11:31;;;;;;;7.20;4.07;;;;;;;2.17;100.00;95993.28;5002176;28;20124;-70
2024/03/25 06:13:56;;;;;;;7.72;4.10;;;;;;;2.49;100.00;95995.25;5002735;28;20049;-70
2024/03/25 06:16:22;;;;;;;10.20;3.67;;;;;;;2.15;100.00;95982.81;4979838;28;20248;-70
2024/03/25 06:18:47;;;;;;;11.57;8.02;;;;;;;2.23;100.00;95989.25;5002890;28;20132;-71
2024/03/25 06:21:13;;;;;;;10.45;6.47;;;;;;;2.70;100.00;95978.19;4997385;28;20500;-70
2024/03/25 06:23:38;;;;;;;9.52;4.82;;;;;;;3.27;100.00;95976.63;5003085;28;20049;-71
2024/03/25 06:26:04;;;;;;;9.07;4.13;;;;;;;3.72;100.00;95977.66;5005233;28;20049;-70
2024/03/25 06:28:29;;;;;;;7.93;3.92;;;;;;;4.12;100.00;95974.22;5021453;28;20050;-70
2024/03/25 06:36:22;;;;;;;5.68;3.00;;;;;;;3.89;100.00;95963.91;4998490;28;21025;-70
2024/03/25 06:38:48;;;;;;;5.00;2.97;;;;;;;3.92;100.00;95965.13;5002890;28;20057;-70
2024/03/25 06:41:14;;;;;;;6.30;2.75;;;;;;;4.33;100.00;95969.41;4980625;28;20049;-70
2024/03/25 06:43:39;;;;;;;8.60;3.40;;;;;;;4.36;100.00;95966.03;4980152;28;20041;-70
2024/03/25 06:46:06;;;;;;;7.35;3.40;;;;;;;4.06;100.00;95972.91;4997192;28;20081;-70
2024/03/25 06:48:31;;;;;;;7.18;3.10;;;;;;;3.71;100.00;95976.06;4985976;28;20053;-71
2024/03/25 06:50:58;;;;;;;6.85;3.75;;;;;;;4.33;100.00;95972.13;5002949;28;20143;-72
2024/03/25 06:53:24;;;;;;;8.23;3.25;;;;;;;6.42;100.00;95963.66;4997276;28;20050;-71
2024/03/25 06:55:57;;;;;;;12.13;5.05;;;;;;;8.14;100.00;95963.91;4984641;28;20496;-71
2024/03/25 06:58:24;;;;;;;7.00;2.70;;;;;;;10.51;100.00;95960.69;4998270;28;20058;-70
2024/03/25 07:00:50;;;;;;;6.65;2.85;;;;;;;12.37;100.00;95967.56;5001839;28;20037;-70
2024/03/25 07:03:19;;;;;;;9.02;3.38;;;;;;;13.65;73.71;95983.09;4997430;28;20124;-71
2024/03/25 07:05:46;;;;;;;5.78;2.50;;;;;;;13.42;70.71;95978.94;4984157;28;20057;-72
2024/03/25 07:08:12;;;;;;;5.63;2.22;;;;;;;14.99;62.76;95983.41;4978764;28;20042;-69
2024/03/25 07:10:38;;;;;;;5.55;2.10;;;;;;;15.10;56.17;95992.31;5002279;28;20263;-71
2024/03/25 07:13:05;;;;;;;6.45;1.55;;;;;;;14.50;57.76;95981.56;4996903;28;20046;-72
2024/03/25 07:15:31;;;;;;;5.40;2.38;;;;;;;14.66;57.20;95983.00;5001475;28;20049;-72
2024/03/25 07:17:57;;;;;;;9.88;6.53;;;;;;;11.91;65.49;95976.66;5002015;28;20466;-69
2024/03/25 07:20:23;;;;;;;7.40;4.65;;;;;;;11.75;75.82;95962.53;4996221;28;20045;-71
2024/03/25 07:22:48;;;;;;;6.93;2.92;;;;;;;12.70;74.31;95968.25;5001868;28;20059;-71
2024/03/25 07:25:14;;;;;;;5.32;1.90;;;;;;;14.33;60.63;95975.03;4996233;28;20053;-71
2024/03/25 07:27:40;;;;;;;3.72;1.75;;;;;;;13.87;57.77;95965.22;5001846;28;20046;-71
2024/03/25 07:30:06;;;;;;;4.60;1.67;;;;;;;14.27;56.89;95967.63;4997825;28;20041;-69
2024/03/25 07:32:33;;;;;;;5.43;2.10;;;;;;;14.02;57.44;95963.13;5001275;28;20065;-69
2024/03/25 07:34:58;;;;;;;5.43;2.17;;;;;;;11.47;65.87;95948.41;5001664;28;20064;-73
2024/03/25 07:37:24;;;;;;;5.80;2.65;;;;;;;10.77;72.30;95947.88;4996117;28;20463;-72
2024/03/25 07:39:49;;;;;;;7.15;5.75;;;;;;;8.00;100.00;95930.97;5000808;28;20050;-70
2024/03/25 07:42:14;;;;;;;7.32;3.72;;;;;;;7.24;100.00;95924.38;4997088;28;20128;-71
2024/03/25 07:44:40;;;;;;;7.10;2.35;;;;;;;7.07;100.00;95919.41;5002015;28;20072;-71
2024/03/25 07:47:05;;;;;;;10.02;3.17;;;;;;;8.49;100.00;95921.09;4996436;28;20049;-71
2024/03/25 07:49:33;;;;;;;7.35;2.75;;;;;;;9.62;99.04;95921.81;5002775;28;20108;-70
2024/03/25 07:51:59;;;;;;;6.00;2.10;;;;;;;11.57;83.93;95919.41;5001984;28;20042;-70
2024/03/25 07:54:26;;;;;;;5.45;2.22;;;;;;;12.84;71.54;95934.44;4997639;28;20425;-70
2024/03/25 07:56:52;;;;;;;6.20;2.00;;;;;;;13.64;65.90;95943.00;5001379;28;20419;-71
2024/03/25 07:59:18;;;;;;;13.02;2.53;;;;;;;14.59;58.48;95933.47;4996802;28;20116;-70
2024/03/25 08:01:44;;;;;;;7.10;2.20;;;;;;;15.42;54.06;95942.22;4984721;28;20033;-70
2024/03/25 08:04:09;;;;;;;7.35;1.75;;;;;;;15.88;53.98;95934.41;4998405;28;20053;-72
2024/03/25 08:06:34;;;;;;;4.65;1.73;;;;;;;15.68;52.17;95945.38;5003088;28;20377;-72
2024/03/25 08:09:00;;;;;;;5.80;1.98;;;;;;;14.50;53.12;95940.22;5011277;28;20140;-71
2024/03/25 08:11:26;;;;;;;6.20;2.00;;;;;;;12.45;60.50;95927.13;5000371;28;20045;-70
2024/03/25 08:13:52;;;;;;;3.50;1.42;;;;;;;13.80;59.25;95925.97;5006110;28;20483;-69
2024/03/25 08:16:17;;;;;;;4.00;1.48;;;;;;;13.54;56.15;95923.44;5011395;28;20096;-68
2024/03/25 08:18:42;;;;;;;7.57;2.20;;;;;;;13.46;60.84;95919.16;5016872;28;20030;-68
2024/03/25 08:21:08;;;;;;;9.52;5.03;;;;;;;13.57;61.10;95914.34;4986927;28;20045;-67
2024/03/25 08:23:33;;;;;;;4.90;2.17;;;;;;;13.90;59.39;95911.31;5000560;28;20050;-67
2024/03/25 08:26:00;;;;;;;4.43;2.38;;;;;;;13.00;59.89;95906.50;4996390;28;20054;-68
2024/03/25 08:28:26;;;;;;;4.80;1.80;;;;;;;14.29;56.81;95916.44;4993864;28;20129;-68
2024/03/25 08:30:51;;;;;;;5.22;1.95;;;;;;;14.61;53.90;95909.03;5009499;28;20054;-69
2024/03/25 08:33:16;;;;;;;6.82;2.20;;;;;;;13.19;57.94;95903.22;5015533;28;20049;-69
2024/03/25 08:35:42;;;;;;;7.68;2.03;;;;;;;12.89;60.98;95892.00;5002684;28;20136;-68
2024/03/25 08:38:08;;;;;;;6.50;2.28;;;;;;;12.32;61.63;95888.34;4995330;28;20076;-66
2024/03/25 08:40:33;;;;;;;5.10;1.80;;;;;;;12.65;61.61;95883.50;5000970;28;20057;-67
2024/03/25 08:42:59;;;;;;;6.53;2.13;;;;;;;9.68;73.08;95871.84;4982901;28;20046;-70
2024/03/25 08:45:24;;;;;;;7.03;2.50;;;;;;;9.31;78.46;95861.03;4997639;28;20057;-69
2024/03/25 08:47:50;;;;;;;5.78;2.05;;;;;;;11.33;77.53;95857.94;5004394;28;20037;-69
2024/03/25 08:50:15;;;;;;;6.78;2.90;;;;;;;11.26;75.04;95857.94;4998848;28;20127;-69
2024/03/25 08:52:41;;;;;;;6.30;3.08;;;;;;;10.89;73.35;95853.56;5003218;28;20073;-69
2024/03/25 08:55:06;;;;;;;4.93;2.28;;;;;;;13.93;59.58;95855.47;5006003;28;20084;-67
2024/03/25 08:57:32;;;;;;;5.45;2.03;;;;;;;15.70;55.10;95859.38;5007206;28;20046;-69
2024/03/25 08:59:57;;;;;;;3.85;1.55;;;;;;;16.85;49.76;95871.03;5000672;28;20041;-69
2024/03/25 09:02:23;;;;;;;5.80;1.88;;;;;;;16.77;48.72;95862.88;5001191;28;20048;-70
2024/03/25 09:04:48;;;;;;;5.05;2.05;;;;;;;14.01;51.33;95861.66;5009335;28;20073;-68
2024/03/25 09:07:14;;;;;;;4.50;1.65;;;;;;;14.90;52.20;95843.28;4999762;28;20034;-68
2024/03/25 09:12:24;;;;;;;6.85;2.38;;;;;;;11.06;70.49;95819.16;4998568;28;20053;-69
2024/03/25 09:14:49;;;;;;;6.55;3.45;;;;;;;11.14;75.06;95825.44;5001957;28;20045;-69
2024/03/25 09:17:16;;;;;;;6.15;2.30;;;;;;;10.63;68.54;95838.28;4996336;28;20038;-67
2024/03/25 09:19:41;;;;;;;6.60;2.10;;;;;;;12.61;62.74;95836.81;5001165;28;20045;-68
2024/03/25 09:22:06;;;;;;;5.00;1.92;;;;;;;12.92;60.22;95833.50;4996308;28;20038;-68
2024/03/25 09:24:32;;;;;;;3.92;2.10;;;;;;;13.56;61.79;95824.75;4999833;28;20133;-67
2024/03/25 09:26:57;;;;;;;3.35;1.40;;;;;;;11.52;63.32;95823.81;5000362;28;20496;-67
2024/03/25 09:29:22;;;;;;;5.68;2.03;;;;;;;11.93;67.36;95811.63;4995118;28;20073;-67
2024/03/25 09:31:48;;;;;;;8.32;3.53;;;;;;;11.23;73.99;95820.34;5000153;28;20576;-67
2024/03/25 09:34:13;;;;;;;4.57;2.10;;;;;;;10.35;76.37;95806.91;4993902;28;20084;-67
2024/03/25 09:36:38;;;;;;;4.95;1.77;;;;;;;11.12;66.36;95808.59;4998684;28;20057;-67
2024/03/25 09:39:04;;;;;;;4.90;2.03;;;;;;;11.37;70.72;95800.34;4995437;28;20580;-67
2024/03/25 09:41:34;;;;;;;8.85;1.90;;;;;;;13.00;63.03;95805.56;4999619;28;20350;-68
2024/03/25 09:44:00;;;;;;;;;;;;;;;13.84;53.94;95808.38;4999512;28;20042;-68
2024/03/25 09:46:26;;;;;;;8.15;1.70;;;;;;;13.95;50.96;95803.53;4993513;28;19991;-69
2024/03/25 09:48:53;;;;;;;3.85;1.60;;;;;;;13.23;51.07;95804.19;5001912;28;20542;-69
2024/03/25 09:51:19;;;;;;;5.18;1.50;;;;;;;13.99;50.93;95793.28;4976007;28;20076;-68
2024/03/25 09:53:45;;;;;;;4.85;1.80;;;;;;;14.90;48.57;95790.91;4999713;28;20034;-68
2024/03/25 09:56:11;;;;;;;6.47;2.20;;;;;;;14.27;48.05;95791.34;4976225;28;20520;-65
2024/03/25 09:58:38;;;;;;;8.00;2.28;;;;;;;13.64;47.35;95791.69;4998280;28;20042;-68
2024/03/25 10:01:03;;;;;;;4.22;1.50;;;;;;;14.43;47.91;95786.03;4995438;28;20038;-70
2024/03/25 10:03:28;;;;;;;3.50;1.27;;;;;;;15.01;46.63;95779.72;5000620;28;20366;-70
2024/03/25 10:05:54;;;;;;;3.92;1.55;;;;;;;11.16;53.43;95768.25;5007310;28;20046;-67
2024/03/25 10:08:23;;;;;;;3.47;1.80;;;;;;;13.76;54.68;95764.41;4980646;28;20440;-69
2024/03/25 10:10:50;;;;;;;4.05;1.88;;;;;;;13.00;58.37;95763.56;4999044;28;20046;-69
2024/03/25 10:13:16;;;;;;;7.07;2.00;;;;;;;14.12;55.45;95765.97;4995129;28;20157;-68
2024/03/25 10:15:41;;;;;;;6.28;1.83;;;;;;;15.38;49.87;95759.41;4998994;28;20511;-69
2024/03/25 10:18:08;;;;;;;3.35;1.67;;;;;;;16.00;46.55;95759.06;4995805;28;20041;-68
2024/03/25 10:20:34;;;;;;;3.83;1.35;;;;;;;14.39;47.02;95757.75;5000275;28;20064;-67
2024/03/25 10:23:00;;;;;;;3.25;1.30;;;;;;;12.93;50.30;95761.66;5002980;28;20192;-67
2024/03/25 10:25:29;;;;;;;5.25;1.50;;;;;;;15.14;48.56;95746.81;4998424;28;20137;-68
2024/03/25 10:27:55;;;;;;;9.52;2.60;;;;;;;15.20;47.37;95750.66;5004810;28;20079;-67
2024/03/25 10:30:22;;;;;;;3.33;1.10;;;;;;;13.22;48.95;95738.59;5003403;28;20512;-68
2024/03/25 10:32:57;;;;;;;3.63;1.92;;;;;;;11.91;54.89;95732.44;5000269;28;20038;-68
2024/03/25 10:35:26;;;;;;;8.98;2.15;;;;;;;11.99;55.37;95724.94;5004899;28;20290;-69
2024/03/25 10:37:56;;;;;;;2.90;1.58;;;;;;;11.23;58.53;95713.44;5025789;28;20042;-69
2024/03/25 10:40:27;;;;;;;4.70;1.58;;;;;;;11.93;50.48;95721.84;5009945;28;20345;-68
2024/03/25 10:43:06;;;;;;;4.05;1.42;;;;;;;12.08;51.44;95705.31;4978293;28;20133;-68
2024/03/25 10:45:34;;;;;;;5.63;1.55;;;;;;;11.05;51.99;95691.53;5001462;28;20045;-67
2024/03/25 10:48:20;;;;;;;3.95;1.30;;;;;;;10.78;54.32;95686.50;4984510;28;20038;-69
2024/03/25 10:50:46;;;;;;;4.88;1.55;;;;;;;10.98;54.02;95683.34;4984407;28;20041;-66
2024/03/25 10:53:13;;;;;;;5.90;1.63;;;;;;;11.59;54.58;95674.94;4996673;28;20100;-68
2024/03/25 10:55:40;;;;;;;4.72;2.05;;;;;;;14.12;52.91;95683.38;5002331;28;20125;-68
2024/03/25 10:58:07;;;;;;;9.23;2.17;;;;;;;15.13;50.50;95677.09;4996296;28;20034;-68
2024/03/25 11:00:34;;;;;;;5.82;1.40;;;;;;;14.78;47.71;95678.47;5001817;28;20196;-66
2024/03/25 11:03:01;;;;;;;4.28;1.40;;;;;;;15.08;44.27;95674.81;5003118;28;20100;-67
2024/03/25 11:05:27;;;;;;;4.38;1.88;;;;;;;15.19;43.51;95672.63;4997022;28;20058;-69
2024/03/25 11:07:52;;;;;;;6.65;1.45;;;;;;;14.11;44.78;95671.56;5003752;28;20050;-67
2024/03/25 11:10:17;;;;;;;4.05;1.70;;;;;;;12.65;53.65;95660.22;4997592;28;20404;-67
2024/03/25 11:12:43;;;;;;;5.10;1.80;;;;;;;12.83;54.82;95658.06;5001426;28;20936;-66
2024/03/25 11:15:09;;;;;;;4.72;2.22;;;;;;;12.60;57.92;95648.47;4997244;28;20041;-67
2024/03/25 11:17:35;;;;;;;5.90;1.58;;;;;;;12.55;58.79;95631.63;4984246;28;20492;-67
2024/03/25 11:20:07;;;;;;;4.28;2.00;;;;;;;12.96;56.36;95631.66;4983147;28;20045;-66
2024/03/25 11:22:33;;;;;;;4.68;1.42;;;;;;;12.57;55.48;95621.03;5001314;28;20053;-67
2024/03/25 11:25:06;;;;;;;5.25;2.00;;;;;;;13.08;58.90;95611.09;5000982;28;20049;-67
2024/03/25 11:27:32;;;;;;;4.22;1.75;;;;;;;12.97;59.98;95605.72;5001401;28;20366;-66
2024/03/25 11:29:57;;;;;;;4.20;2.00;;;;;;;13.36;57.97;95603.75;5001439;28;20038;-68
2024/03/25 11:32:24;;;;;;;5.32;1.73;;;;;;;13.04;56.25;95598.59;4997788;28;20439;-69
2024/03/25 11:34:51;;;;;;;4.53;2.13;;;;;;;13.34;53.88;95600.63;4993507;28;20409;-67